createdAt,value
2022-12-25T00:01:41.241Z,71.53
2022-12-25T00:04:09.076Z,71.71
2022-12-25T00:06:37.157Z,71.59
2022-12-25T00:09:05.130Z,72.00
2022-12-25T00:11:33.033Z,71.77
2022-12-25T00:14:00.730Z,71.68
2022-12-25T00:16:28.550Z,71.51
2022-12-25T00:18:58.998Z,71.74
2022-12-25T00:21:27.705Z,71.76
2022-12-25T00:23:57.505Z,71.95
2022-12-25T00:26:27.088Z,71.77
2022-12-25T00:28:56.351Z,71.74
2022-12-25T00:31:25.264Z,71.93
2022-12-25T00:33:53.557Z,72.26
2022-12-25T00:36:22.293Z,72.39
2022-12-25T00:38:50.278Z,72.52
2022-12-25T00:41:41.200Z,72.50
2022-12-25T00:44:11.069Z,72.80
2022-12-25T00:46:38.864Z,72.69
2022-12-25T00:49:07.040Z,72.77
2022-12-25T00:51:34.854Z,72.84
2022-12-25T00:54:02.945Z,72.87
2022-12-25T00:56:30.796Z,72.96
2022-12-25T00:58:58.558Z,73.31
2022-12-25T01:01:26.492Z,72.96
2022-12-25T01:03:55.269Z,73.08
2022-12-25T01:06:23.163Z,73.13
2022-12-25T01:09:09.780Z,73.16
2022-12-25T01:11:37.578Z,73.39
2022-12-25T01:14:05.340Z,73.57
2022-12-25T01:16:33.448Z,73.43
2022-12-25T01:19:01.820Z,73.42
2022-12-25T01:21:30.156Z,73.53
2022-12-25T01:23:58.153Z,73.55
2022-12-25T01:26:27.211Z,73.25
2022-12-25T01:28:55.204Z,73.16
2022-12-25T01:31:24.558Z,73.12
2022-12-25T01:33:52.807Z,73.03
2022-12-25T01:36:25.683Z,73.07
2022-12-25T01:38:54.285Z,72.84
2022-12-25T01:41:24.069Z,72.75
2022-12-25T01:43:59.462Z,72.22
2022-12-25T01:46:27.468Z,72.26
2022-12-25T01:48:57.237Z,72.09
2022-12-25T01:51:29.788Z,72.47
2022-12-25T01:54:00.543Z,72.29
2022-12-25T01:56:29.019Z,72.36
2022-12-25T01:58:57.441Z,71.94
2022-12-25T02:01:25.520Z,71.54
2022-12-25T02:03:59.280Z,71.63
2022-12-25T02:06:30.636Z,71.73
2022-12-25T02:08:59.241Z,71.54
2022-12-25T02:11:45.814Z,71.53
2022-12-25T02:14:13.675Z,71.34
2022-12-25T02:16:57.879Z,71.38
2022-12-25T02:20:10.047Z,71.30
2022-12-25T02:23:11.699Z,70.84
2022-12-25T02:25:53.548Z,70.26
2022-12-25T02:28:26.242Z,70.34
2022-12-25T02:31:03.275Z,70.13
2022-12-25T02:33:57.646Z,69.90
2022-12-25T02:36:28.342Z,69.73
2022-12-25T02:39:17.551Z,69.45
2022-12-25T02:41:47.792Z,69.63
2022-12-25T02:44:37.238Z,69.73
2022-12-25T02:47:25.822Z,69.90
2022-12-25T02:50:13.326Z,69.61
2022-12-25T02:53:01.624Z,69.45
2022-12-25T02:55:52.787Z,69.57
2022-12-25T02:58:40.861Z,69.66
2022-12-25T03:01:33.909Z,69.66
2022-12-25T03:04:24.732Z,69.42
2022-12-25T03:07:14.738Z,69.16
2022-12-25T03:10:06.337Z,69.25
2022-12-25T03:12:50.768Z,69.23
2022-12-25T03:15:38.162Z,69.12
2022-12-25T03:18:10.367Z,69.30
2022-12-25T03:20:56.903Z,69.15
2022-12-25T03:23:47.981Z,69.07
2022-12-25T03:26:35.092Z,69.15
2022-12-25T03:29:03.318Z,68.57
2022-12-25T03:36:09.416Z,68.22
2022-12-25T03:39:13.604Z,67.96
2022-12-25T03:42:20.837Z,67.85
2022-12-25T03:45:38.087Z,67.87
2022-12-25T03:48:27.884Z,67.93
2022-12-25T03:51:22.241Z,67.78
2022-12-25T03:54:13.872Z,67.72
2022-12-25T03:57:01.629Z,67.66
2022-12-25T03:59:48.112Z,67.80
2022-12-25T04:02:34.541Z,68.06
2022-12-25T04:05:21.357Z,67.97
2022-12-25T04:08:07.768Z,67.58
2022-12-25T04:10:54.269Z,67.64
2022-12-25T04:13:40.895Z,67.77
2022-12-25T04:16:27.482Z,67.56
2022-12-25T04:19:14.139Z,67.32
2022-12-25T04:22:00.691Z,67.55
2022-12-25T04:24:47.240Z,67.58
2022-12-25T04:27:33.797Z,67.54
2022-12-25T04:30:20.395Z,67.67
2022-12-25T04:33:06.878Z,68.23
2022-12-25T04:35:53.240Z,67.89
2022-12-25T04:38:22.291Z,67.59
2022-12-25T04:40:50.007Z,67.89
2022-12-25T04:43:17.717Z,67.82
2022-12-25T04:45:53.293Z,67.75
2022-12-25T04:48:21.198Z,67.58
2022-12-25T04:50:49.090Z,67.21
2022-12-25T04:53:17.957Z,67.27
2022-12-25T04:55:45.756Z,67.41
2022-12-25T04:58:14.094Z,66.98
2022-12-25T05:00:42.025Z,67.13
2022-12-25T05:03:10.049Z,66.96
2022-12-25T05:05:40.468Z,66.71
2022-12-25T05:08:08.435Z,66.87
2022-12-25T05:10:39.947Z,66.60
2022-12-25T05:13:07.636Z,66.67
2022-12-25T05:15:35.435Z,66.67
2022-12-25T05:18:03.433Z,66.54
2022-12-25T05:20:34.827Z,66.93
2022-12-25T05:23:10.777Z,67.49
2022-12-25T05:25:40.462Z,67.51
2022-12-25T05:28:08.195Z,67.21
2022-12-25T05:30:36.006Z,66.84
2022-12-25T05:33:04.028Z,67.39
2022-12-25T05:35:32.114Z,67.39
2022-12-25T05:37:59.816Z,67.80
2022-12-25T05:40:27.722Z,67.62
2022-12-25T05:42:55.446Z,67.58
2022-12-25T05:45:23.157Z,67.55
2022-12-25T05:47:50.906Z,67.37
2022-12-25T05:50:18.675Z,67.24
2022-12-25T05:52:46.391Z,67.17
2022-12-25T05:55:14.196Z,67.01
2022-12-25T05:57:41.913Z,66.99
2022-12-25T06:00:10.381Z,67.10
2022-12-25T06:02:41.160Z,66.68
2022-12-25T06:05:09.940Z,66.66
2022-12-25T06:07:37.672Z,66.90
2022-12-25T06:10:06.648Z,66.83
2022-12-25T06:12:34.543Z,66.73
2022-12-25T06:15:02.519Z,66.94
2022-12-25T06:17:30.258Z,67.35
2022-12-25T06:19:58.386Z,66.97
2022-12-25T06:22:30.757Z,67.18
2022-12-25T06:24:59.098Z,66.68
2022-12-25T06:27:28.386Z,66.47
2022-12-25T06:29:56.159Z,66.51
2022-12-25T06:32:23.860Z,66.35
2022-12-25T06:34:51.623Z,66.25
2022-12-25T06:37:19.871Z,66.56
2022-12-25T06:39:48.442Z,66.75
2022-12-25T06:42:16.294Z,66.77
2022-12-25T06:44:44.833Z,66.91
2022-12-25T06:47:12.610Z,66.67
2022-12-25T06:49:40.423Z,66.24
2022-12-25T06:52:08.234Z,66.00
2022-12-25T06:54:35.982Z,66.18
2022-12-25T06:57:03.790Z,66.47
2022-12-25T06:59:31.484Z,66.26
2022-12-25T07:01:59.596Z,66.42
2022-12-25T07:04:35.748Z,66.33
2022-12-25T07:07:09.005Z,66.34
2022-12-25T07:09:39.342Z,66.16
2022-12-25T07:12:19.829Z,66.20
2022-12-25T07:14:50.542Z,66.12
2022-12-25T07:17:19.805Z,66.21
2022-12-25T07:19:48.208Z,66.08
2022-12-25T07:22:16.829Z,65.92
2022-12-25T07:24:44.636Z,65.87
2022-12-25T07:27:12.557Z,65.48
2022-12-25T07:29:40.389Z,65.70
2022-12-25T07:32:08.436Z,65.70
2022-12-25T07:34:36.274Z,65.59
2022-12-25T07:37:04.064Z,65.92
2022-12-25T07:39:31.916Z,66.19
2022-12-25T07:41:59.649Z,65.76
2022-12-25T07:44:28.847Z,66.02
2022-12-25T07:46:56.938Z,65.96
2022-12-25T07:49:24.689Z,65.79
2022-12-25T07:51:52.424Z,65.83
2022-12-25T07:54:20.864Z,66.00
2022-12-25T07:56:52.576Z,65.94
2022-12-25T07:59:20.633Z,65.74
2022-12-25T08:01:50.465Z,65.63
2022-12-25T08:04:18.612Z,65.56
2022-12-25T08:06:46.522Z,65.77
2022-12-25T08:09:14.283Z,65.52
2022-12-25T08:11:46.673Z,65.21
2022-12-25T08:14:14.709Z,65.36
2022-12-25T08:16:42.644Z,65.48
2022-12-25T08:19:11.267Z,65.53
2022-12-25T08:21:39.181Z,65.36
2022-12-25T08:24:07.178Z,65.18
2022-12-25T08:26:34.870Z,65.29
2022-12-25T08:29:02.724Z,65.10
2022-12-25T08:31:31.062Z,65.24
2022-12-25T08:33:59.786Z,65.56
2022-12-25T08:36:27.607Z,65.49
2022-12-25T08:39:02.071Z,65.74
2022-12-25T08:41:31.766Z,65.32
2022-12-25T08:43:59.500Z,65.35
2022-12-25T08:46:27.273Z,65.03
2022-12-25T08:48:56.796Z,65.23
2022-12-25T08:51:26.043Z,65.03
2022-12-25T08:53:59.323Z,64.96
2022-12-25T08:56:27.171Z,64.96
2022-12-25T08:58:54.938Z,64.97
2022-12-25T09:01:22.868Z,64.79
2022-12-25T09:03:50.779Z,64.37
2022-12-25T09:06:18.748Z,64.51
2022-12-25T09:08:49.487Z,64.27
2022-12-25T09:11:19.948Z,63.79
2022-12-25T09:13:49.133Z,63.98
2022-12-25T09:16:20.579Z,64.06
2022-12-25T09:18:49.474Z,63.99
2022-12-25T09:21:17.919Z,63.98
2022-12-25T09:23:45.709Z,64.06
2022-12-25T09:26:15.768Z,63.70
2022-12-25T09:28:50.607Z,63.85
2022-12-25T09:31:21.512Z,64.03
2022-12-25T09:33:50.816Z,64.13
2022-12-25T09:36:18.715Z,64.15
2022-12-25T09:38:46.517Z,64.14
2022-12-25T09:41:23.713Z,63.40
2022-12-25T09:43:56.141Z,63.10
2022-12-25T09:46:33.060Z,62.87
2022-12-25T09:49:13.143Z,62.43
2022-12-25T09:51:44.463Z,62.07
2022-12-25T09:54:35.155Z,61.65
2022-12-25T09:57:03.663Z,61.23
2022-12-25T09:59:31.462Z,61.06
2022-12-25T10:02:06.310Z,60.83
2022-12-25T10:04:47.640Z,60.60
2022-12-25T10:07:37.322Z,60.01
2022-12-25T10:10:23.585Z,59.72
2022-12-25T10:12:51.440Z,59.21
2022-12-25T10:15:39.226Z,58.88
2022-12-25T10:18:22.150Z,58.33
2022-12-25T10:20:55.057Z,58.29
2022-12-25T10:23:26.488Z,57.78
2022-12-25T10:25:54.932Z,57.15
2022-12-25T10:28:30.596Z,56.73
2022-12-25T10:31:02.407Z,55.93
2022-12-25T10:33:31.086Z,55.65
2022-12-25T10:36:00.083Z,55.38
2022-12-25T10:38:27.973Z,55.14
2022-12-25T10:41:20.966Z,54.47
2022-12-25T10:43:54.823Z,54.11
2022-12-25T10:46:24.948Z,53.53
2022-12-25T10:48:58.036Z,53.25
2022-12-25T10:51:33.708Z,53.64
2022-12-25T10:54:19.799Z,53.95
2022-12-25T10:56:54.559Z,53.32
2022-12-25T10:59:23.344Z,53.12
2022-12-25T11:01:55.139Z,53.55
2022-12-25T11:04:28.686Z,53.54
2022-12-25T11:07:14.234Z,53.73
2022-12-25T11:09:49.837Z,53.33
2022-12-25T11:12:20.084Z,53.12
2022-12-25T11:14:57.146Z,52.72
2022-12-25T11:17:25.933Z,52.59
2022-12-25T11:19:58.622Z,52.42
2022-12-25T11:22:28.893Z,52.32
2022-12-25T11:24:56.627Z,51.60
2022-12-25T11:27:28.008Z,51.35
2022-12-25T11:29:59.271Z,51.44
2022-12-25T11:32:30.735Z,51.30
2022-12-25T11:34:59.289Z,51.45
2022-12-25T11:37:38.568Z,51.40
2022-12-25T11:40:13.083Z,51.23
2022-12-25T11:42:45.386Z,51.17
2022-12-25T11:45:24.713Z,50.94
2022-12-25T11:48:16.145Z,50.58
2022-12-25T11:50:48.150Z,50.80
2022-12-25T11:53:19.040Z,50.54
2022-12-25T11:55:54.817Z,50.42
2022-12-25T11:58:45.210Z,50.11
2022-12-25T12:01:30.480Z,49.53
2022-12-25T12:04:01.097Z,49.83
2022-12-25T12:06:48.090Z,49.51
2022-12-25T12:09:31.183Z,49.78
2022-12-25T12:12:08.601Z,49.42
2022-12-25T12:15:03.961Z,49.34
2022-12-25T12:17:32.158Z,48.51
2022-12-25T12:20:13.831Z,48.35
2022-12-25T12:22:49.112Z,48.10
2022-12-25T12:25:18.707Z,47.55
2022-12-25T12:27:54.848Z,47.39
2022-12-25T12:30:31.486Z,46.69
2022-12-25T12:33:01.845Z,46.33
2022-12-25T12:35:35.745Z,45.55
2022-12-25T12:38:18.347Z,45.77
2022-12-25T12:40:57.313Z,45.23
2022-12-25T12:43:30.256Z,44.76
2022-12-25T12:46:06.481Z,44.62
2022-12-25T12:48:41.523Z,44.49
2022-12-25T12:51:34.160Z,44.32
2022-12-25T12:54:24.313Z,44.00
2022-12-25T12:57:23.006Z,44.37
2022-12-25T12:59:50.780Z,43.94
2022-12-25T13:02:46.772Z,44.17
2022-12-25T13:05:34.955Z,44.47
2022-12-25T13:08:41.808Z,45.38
2022-12-25T13:11:20.608Z,46.02
2022-12-25T13:13:50.690Z,46.91
2022-12-25T13:16:31.967Z,47.62
2022-12-25T13:19:04.477Z,48.10
2022-12-25T13:21:33.156Z,48.65
2022-12-25T13:24:03.154Z,49.20
2022-12-25T13:26:31.126Z,49.87
2022-12-25T13:28:59.078Z,50.29
2022-12-25T13:31:28.836Z,50.69
2022-12-25T13:33:59.973Z,51.31
2022-12-25T13:36:29.815Z,51.58
2022-12-25T13:38:58.621Z,51.73
2022-12-25T13:41:51.567Z,51.10
2022-12-25T13:44:26.723Z,50.64
2022-12-25T13:46:54.528Z,49.74
2022-12-25T13:49:24.361Z,49.26
2022-12-25T13:51:52.117Z,49.45
2022-12-25T13:54:19.904Z,49.68
2022-12-25T13:56:50.761Z,50.19
2022-12-25T13:59:21.528Z,50.77
2022-12-25T14:01:50.240Z,51.17
2022-12-25T14:04:21.450Z,51.43
2022-12-25T14:06:50.058Z,51.99
2022-12-25T14:09:18.468Z,52.42
2022-12-25T14:11:50.020Z,52.78
2022-12-25T14:14:22.708Z,53.07
2022-12-25T14:16:53.465Z,53.48
2022-12-25T14:19:26.349Z,53.89
2022-12-25T14:22:05.175Z,54.16
2022-12-25T14:24:34.235Z,54.42
2022-12-25T14:27:04.751Z,54.79
2022-12-25T14:29:39.657Z,54.98
2022-12-25T14:32:08.242Z,55.28
2022-12-25T14:34:36.040Z,55.76
2022-12-25T14:37:04.274Z,56.05
2022-12-25T14:39:38.648Z,56.36
2022-12-25T14:42:16.900Z,56.55
2022-12-25T14:44:56.994Z,56.76
2022-12-25T14:47:26.054Z,57.26
2022-12-25T14:49:54.695Z,57.53
2022-12-25T14:52:27.067Z,57.98
2022-12-25T14:55:03.476Z,58.21
2022-12-25T14:57:38.122Z,58.65
2022-12-25T15:00:23.674Z,59.11
2022-12-25T15:02:53.642Z,59.51
2022-12-25T15:05:29.601Z,59.92
2022-12-25T15:08:06.951Z,60.34
2022-12-25T15:13:24.388Z,60.96
2022-12-25T15:16:14.717Z,61.44
2022-12-25T15:18:44.662Z,61.72
2022-12-25T15:21:33.461Z,62.12
2022-12-25T15:24:01.723Z,62.39
2022-12-25T15:26:30.961Z,62.54
2022-12-25T15:28:58.912Z,62.94
2022-12-25T15:31:31.635Z,63.03
2022-12-25T15:34:01.882Z,63.19
2022-12-25T15:36:29.838Z,63.47
2022-12-25T15:38:57.892Z,63.73
2022-12-25T15:41:49.274Z,63.68
2022-12-25T15:44:17.558Z,63.85
2022-12-25T15:46:49.027Z,64.10
2022-12-25T15:49:17.165Z,64.24
2022-12-25T15:51:45.985Z,64.38
2022-12-25T15:54:13.925Z,64.54
2022-12-25T15:56:44.259Z,64.45
2022-12-25T15:59:13.525Z,64.42
2022-12-25T16:01:50.359Z,64.52
2022-12-25T16:04:20.814Z,64.99
2022-12-25T16:06:49.262Z,65.12
2022-12-25T16:09:18.147Z,65.12
2022-12-25T16:11:46.712Z,65.39
2022-12-25T16:14:15.042Z,65.78
2022-12-25T16:16:42.851Z,65.95
2022-12-25T16:19:10.684Z,65.95
2022-12-25T16:21:41.614Z,65.84
2022-12-25T16:24:09.849Z,65.93
2022-12-25T16:26:37.718Z,65.99
2022-12-25T16:29:07.418Z,66.00
2022-12-25T16:31:36.858Z,66.06
2022-12-25T16:34:05.510Z,65.93
2022-12-25T16:36:33.926Z,65.94
2022-12-25T16:39:02.831Z,65.90
2022-12-25T16:41:30.753Z,65.96
2022-12-25T16:43:58.567Z,65.73
2022-12-25T16:46:26.389Z,65.88
2022-12-25T16:48:55.277Z,65.77
2022-12-25T16:51:23.634Z,65.66
2022-12-25T16:53:53.209Z,65.63
2022-12-25T16:56:25.675Z,65.88
2022-12-25T16:58:54.058Z,66.04
2022-12-25T17:01:23.126Z,65.98
2022-12-25T17:03:52.021Z,66.06
2022-12-25T17:06:24.868Z,65.81
2022-12-25T17:08:55.515Z,65.83
2022-12-25T17:11:27.285Z,65.64
2022-12-25T17:13:56.463Z,65.57
2022-12-25T17:16:27.053Z,65.37
2022-12-25T17:18:56.671Z,65.14
2022-12-25T17:21:26.733Z,65.24
2022-12-25T17:24:01.642Z,65.21
2022-12-25T17:26:32.870Z,65.40
2022-12-25T17:29:01.285Z,65.39
2022-12-25T17:31:29.576Z,65.44
2022-12-25T17:33:57.735Z,65.47
2022-12-25T17:36:25.790Z,65.69
2022-12-25T17:38:55.420Z,65.78
2022-12-25T17:41:24.115Z,65.70
2022-12-25T17:43:52.124Z,65.83
2022-12-25T17:46:22.307Z,65.96
2022-12-25T17:48:52.574Z,65.95
2022-12-25T17:51:23.232Z,66.08
2022-12-25T17:53:56.861Z,66.36
2022-12-25T17:56:25.560Z,66.38
2022-12-25T17:58:56.632Z,66.40
2022-12-25T18:01:26.412Z,66.58
2022-12-25T18:03:55.105Z,66.56
2022-12-25T18:06:26.192Z,66.57
2022-12-25T18:08:55.203Z,66.58
2022-12-25T18:11:27.634Z,66.68
2022-12-25T18:13:58.048Z,66.74
2022-12-25T18:16:27.274Z,66.75
2022-12-25T18:18:55.203Z,66.72
2022-12-25T18:21:23.738Z,66.57
2022-12-25T18:23:52.029Z,66.54
2022-12-25T18:26:20.417Z,66.81
2022-12-25T18:28:49.567Z,66.95
2022-12-25T18:31:20.785Z,66.85
2022-12-25T18:33:49.708Z,66.92
2022-12-25T18:36:20.744Z,66.99
2022-12-25T18:38:50.121Z,67.02
2022-12-25T18:41:18.269Z,66.96
2022-12-25T18:43:53.880Z,67.13
2022-12-25T18:46:25.381Z,67.29
2022-12-25T18:48:57.104Z,67.29
2022-12-25T18:51:27.725Z,67.41
2022-12-25T18:56:17.549Z,67.35
2022-12-25T18:58:47.177Z,67.39
2022-12-25T19:01:19.306Z,67.98
2022-12-25T19:03:49.524Z,67.57
2022-12-25T19:06:19.969Z,67.63
2022-12-25T19:08:48.370Z,67.58
2022-12-25T19:11:16.661Z,67.46
2022-12-25T19:13:44.679Z,67.82
2022-12-25T19:16:12.854Z,67.61
2022-12-25T19:18:40.838Z,67.57
2022-12-25T19:21:10.123Z,67.56
2022-12-25T19:23:38.748Z,67.47
2022-12-25T19:26:08.333Z,67.53
2022-12-25T19:28:37.650Z,67.55
2022-12-25T19:31:07.754Z,67.65
2022-12-25T19:33:36.982Z,67.57
2022-12-25T19:36:08.185Z,67.71
2022-12-25T19:38:36.282Z,67.79
2022-12-25T19:41:12.647Z,67.93
2022-12-25T19:43:41.619Z,68.16
2022-12-25T19:46:23.954Z,68.30
2022-12-25T19:48:52.441Z,68.37
2022-12-25T19:51:27.201Z,68.57
2022-12-25T19:53:58.234Z,68.40
2022-12-25T19:56:27.922Z,68.36
2022-12-25T19:58:56.787Z,68.60
2022-12-25T20:01:27.040Z,68.84
2022-12-25T20:03:55.396Z,68.98
2022-12-25T20:06:29.611Z,69.17
2022-12-25T20:09:01.239Z,69.10
2022-12-25T20:11:30.234Z,69.40
2022-12-25T20:13:58.766Z,69.48
2022-12-25T20:16:26.868Z,69.51
2022-12-25T20:18:55.886Z,69.27
2022-12-25T20:21:24.456Z,69.10
2022-12-25T20:23:54.697Z,68.86
2022-12-25T20:26:25.378Z,68.95
2022-12-25T20:28:53.178Z,68.94
2022-12-25T20:31:30.023Z,68.88
2022-12-25T20:34:00.894Z,68.90
2022-12-25T20:36:36.099Z,68.82
2022-12-25T20:39:09.437Z,68.63
2022-12-25T20:41:38.902Z,68.63
2022-12-25T20:44:09.829Z,68.67
2022-12-25T20:46:37.706Z,68.54
2022-12-25T20:49:05.815Z,68.58
2022-12-25T20:51:33.610Z,68.57
2022-12-25T20:54:06.435Z,68.54
2022-12-25T20:56:34.461Z,68.43
2022-12-25T20:59:02.286Z,68.53
2022-12-25T21:01:31.887Z,68.52
2022-12-25T21:03:59.876Z,68.39
2022-12-25T21:06:27.805Z,68.27
2022-12-25T21:08:55.848Z,68.34
2022-12-25T21:11:23.633Z,68.41
2022-12-25T21:13:51.657Z,68.23
2022-12-25T21:16:22.115Z,68.32
2022-12-25T21:18:52.324Z,68.21
2022-12-25T21:21:21.188Z,68.02
2022-12-25T21:23:48.947Z,68.04
2022-12-25T21:26:24.920Z,68.11
2022-12-25T21:28:55.323Z,68.03
2022-12-25T21:31:24.382Z,68.11
2022-12-25T21:33:53.961Z,68.01
2022-12-25T21:36:30.123Z,67.82
2022-12-25T21:39:00.348Z,68.06
2022-12-25T21:41:30.162Z,68.19
2022-12-25T21:43:58.299Z,68.37
2022-12-25T21:46:26.545Z,68.59
2022-12-25T21:48:55.543Z,68.87
2022-12-25T21:51:48.293Z,69.06
2022-12-25T21:54:17.230Z,69.03
2022-12-25T21:56:47.027Z,69.01
2022-12-25T21:59:17.321Z,69.00
2022-12-25T22:01:45.912Z,69.09
2022-12-25T22:04:15.242Z,69.19
2022-12-25T22:07:02.074Z,69.26
2022-12-25T22:09:29.980Z,69.44
2022-12-25T22:12:17.342Z,69.34
2022-12-25T22:14:56.299Z,69.70
2022-12-25T22:17:45.811Z,69.90
2022-12-25T22:20:19.442Z,69.91
2022-12-25T22:22:48.035Z,70.01
2022-12-25T22:25:16.593Z,70.06
2022-12-25T22:27:45.697Z,69.99
2022-12-25T22:30:19.641Z,70.27
2022-12-25T22:32:48.141Z,70.37
2022-12-25T22:35:16.725Z,70.38
2022-12-25T22:37:45.284Z,70.45
2022-12-25T22:40:16.565Z,70.41
2022-12-25T22:42:44.417Z,70.53
2022-12-25T22:45:12.618Z,70.46
2022-12-25T22:47:41.067Z,70.38
2022-12-25T22:50:09.960Z,70.47
2022-12-25T22:52:38.125Z,70.68
2022-12-25T22:55:07.804Z,70.63
2022-12-25T22:57:36.229Z,70.75
2022-12-25T23:00:06.753Z,70.88
2022-12-25T23:02:35.217Z,71.07
2022-12-25T23:05:03.721Z,71.11
2022-12-25T23:07:31.582Z,71.07
2022-12-25T23:09:59.348Z,71.23
2022-12-25T23:12:45.788Z,71.36
2022-12-25T23:15:13.503Z,71.38
2022-12-25T23:18:00.306Z,71.14
2022-12-25T23:20:46.733Z,71.20
2022-12-25T23:23:34.832Z,71.21
2022-12-25T23:26:09.219Z,71.35
2022-12-25T23:28:57.386Z,71.59
2022-12-25T23:31:30.046Z,71.87
2022-12-25T23:33:58.243Z,72.04
2022-12-25T23:36:26.348Z,71.75
2022-12-25T23:38:54.523Z,71.79
2022-12-25T23:41:22.364Z,72.16
2022-12-25T23:43:50.346Z,71.93
2022-12-25T23:46:18.102Z,72.09
2022-12-25T23:48:46.022Z,72.06
2022-12-25T23:51:13.699Z,71.98
2022-12-25T23:53:41.478Z,72.02
2022-12-25T23:56:10.615Z,72.05
2022-12-25T23:58:38.435Z,72.26
